sensor_id;sensor_type;location;lat;lon;timestamp;P1;durP1;ratioP1;P2;durP2;ratioP2
10446;SDS011;70909;45.768;4.884;2023-08-07T00:01:46;0.20;;;0.20;;
10446;SDS011;70909;45.768;4.884;2023-08-07T00:04:13;0.20;;;0.20;;
10446;SDS011;70909;45.768;4.884;2023-08-07T00:06:39;0.30;;;0.30;;
10446;SDS011;70909;45.768;4.884;2023-08-07T00:09:08;0.30;;;0.30;;
10446;SDS011;70909;45.768;4.884;2023-08-07T00:11:34;0.30;;;0.30;;
10446;SDS011;70909;45.768;4.884;2023-08-07T00:14:01;0.30;;;0.30;;
10446;SDS011;70909;45.768;4.884;2023-08-07T00:16:28;0.30;;;0.30;;
10446;SDS011;70909;45.768;4.884;2023-08-07T00:18:55;0.20;;;0.20;;
10446;SDS011;70909;45.768;4.884;2023-08-07T00:21:23;0.30;;;0.30;;
10446;SDS011;70909;45.768;4.884;2023-08-07T00:23:49;0.30;;;0.30;;
10446;SDS011;70909;45.768;4.884;2023-08-07T00:26:18;0.30;;;0.30;;
10446;SDS011;70909;45.768;4.884;2023-08-07T00:28:44;0.30;;;0.30;;
10446;SDS011;70909;45.768;4.884;2023-08-07T00:31:12;0.30;;;0.30;;
10446;SDS011;70909;45.768;4.884;2023-08-07T00:33:39;0.30;;;0.30;;
10446;SDS011;70909;45.768;4.884;2023-08-07T00:36:05;0.30;;;0.30;;
10446;SDS011;70909;45.768;4.884;2023-08-07T00:38:32;0.30;;;0.30;;
10446;SDS011;70909;45.768;4.884;2023-08-07T00:40:59;0.30;;;0.30;;
10446;SDS011;70909;45.768;4.884;2023-08-07T00:43:27;0.30;;;0.30;;
10446;SDS011;70909;45.768;4.884;2023-08-07T00:45:54;0.30;;;0.30;;
10446;SDS011;70909;45.768;4.884;2023-08-07T00:48:21;0.30;;;0.30;;
10446;SDS011;70909;45.768;4.884;2023-08-07T00:50:48;0.30;;;0.30;;
10446;SDS011;70909;45.768;4.884;2023-08-07T00:53:17;0.30;;;0.30;;
10446;SDS011;70909;45.768;4.884;2023-08-07T00:55:44;0.30;;;0.30;;
10446;SDS011;70909;45.768;4.884;2023-08-07T00:58:12;0.30;;;0.30;;
10446;SDS011;70909;45.768;4.884;2023-08-07T01:00:40;0.23;;;0.23;;
10446;SDS011;70909;45.768;4.884;2023-08-07T01:03:07;0.30;;;0.30;;
10446;SDS011;70909;45.768;4.884;2023-08-07T01:05:34;0.30;;;0.30;;
10446;SDS011;70909;45.768;4.884;2023-08-07T01:08:01;0.30;;;0.30;;
10446;SDS011;70909;45.768;4.884;2023-08-07T01:10:31;0.30;;;0.30;;
10446;SDS011;70909;45.768;4.884;2023-08-07T01:13:08;0.30;;;0.30;;
10446;SDS011;70909;45.768;4.884;2023-08-07T01:15:46;0.30;;;0.30;;
10446;SDS011;70909;45.768;4.884;2023-08-07T01:18:14;0.30;;;0.30;;
10446;SDS011;70909;45.768;4.884;2023-08-07T01:20:42;0.30;;;0.30;;
10446;SDS011;70909;45.768;4.884;2023-08-07T01:23:10;0.30;;;0.30;;
10446;SDS011;70909;45.768;4.884;2023-08-07T01:25:37;0.30;;;0.30;;
10446;SDS011;70909;45.768;4.884;2023-08-07T01:28:06;0.30;;;0.30;;
10446;SDS011;70909;45.768;4.884;2023-08-07T01:30:42;0.30;;;0.30;;
10446;SDS011;70909;45.768;4.884;2023-08-07T01:33:15;0.30;;;0.30;;
10446;SDS011;70909;45.768;4.884;2023-08-07T01:35:49;0.30;;;0.30;;
10446;SDS011;70909;45.768;4.884;2023-08-07T01:38:20;0.30;;;0.30;;
10446;SDS011;70909;45.768;4.884;2023-08-07T01:40:50;0.30;;;0.30;;
10446;SDS011;70909;45.768;4.884;2023-08-07T01:43:18;0.30;;;0.30;;
10446;SDS011;70909;45.768;4.884;2023-08-07T01:45:45;0.30;;;0.30;;
10446;SDS011;70909;45.768;4.884;2023-08-07T01:48:12;0.30;;;0.30;;
10446;SDS011;70909;45.768;4.884;2023-08-07T01:50:39;0.30;;;0.30;;
10446;SDS011;70909;45.768;4.884;2023-08-07T01:53:06;0.30;;;0.30;;
10446;SDS011;70909;45.768;4.884;2023-08-07T01:55:34;0.30;;;0.30;;
10446;SDS011;70909;45.768;4.884;2023-08-07T01:58:01;0.30;;;0.30;;
10446;SDS011;70909;45.768;4.884;2023-08-07T02:00:28;0.30;;;0.30;;
10446;SDS011;70909;45.768;4.884;2023-08-07T02:02:56;0.30;;;0.30;;
10446;SDS011;70909;45.768;4.884;2023-08-07T02:05:23;0.30;;;0.30;;
10446;SDS011;70909;45.768;4.884;2023-08-07T02:07:50;0.30;;;0.30;;
10446;SDS011;70909;45.768;4.884;2023-08-07T02:10:17;0.30;;;0.30;;
10446;SDS011;70909;45.768;4.884;2023-08-07T02:12:45;0.30;;;0.30;;
10446;SDS011;70909;45.768;4.884;2023-08-07T02:15:12;0.30;;;0.30;;
10446;SDS011;70909;45.768;4.884;2023-08-07T02:17:38;0.30;;;0.30;;
10446;SDS011;70909;45.768;4.884;2023-08-07T02:20:06;0.30;;;0.30;;
10446;SDS011;70909;45.768;4.884;2023-08-07T02:22:34;0.30;;;0.30;;
10446;SDS011;70909;45.768;4.884;2023-08-07T02:25:01;0.30;;;0.30;;
10446;SDS011;70909;45.768;4.884;2023-08-07T02:27:27;0.40;;;0.40;;
10446;SDS011;70909;45.768;4.884;2023-08-07T02:29:56;0.30;;;0.30;;
10446;SDS011;70909;45.768;4.884;2023-08-07T02:32:23;0.30;;;0.30;;
10446;SDS011;70909;45.768;4.884;2023-08-07T02:34:50;0.30;;;0.30;;
10446;SDS011;70909;45.768;4.884;2023-08-07T02:37:16;0.30;;;0.30;;
10446;SDS011;70909;45.768;4.884;2023-08-07T02:39:44;0.30;;;0.30;;
10446;SDS011;70909;45.768;4.884;2023-08-07T02:42:10;0.30;;;0.30;;
10446;SDS011;70909;45.768;4.884;2023-08-07T02:44:37;0.30;;;0.30;;
10446;SDS011;70909;45.768;4.884;2023-08-07T02:47:06;0.20;;;0.20;;
10446;SDS011;70909;45.768;4.884;2023-08-07T02:49:32;0.30;;;0.30;;
10446;SDS011;70909;45.768;4.884;2023-08-07T02:51:59;0.30;;;0.30;;
10446;SDS011;70909;45.768;4.884;2023-08-07T02:54:26;0.30;;;0.30;;
10446;SDS011;70909;45.768;4.884;2023-08-07T02:56:53;0.30;;;0.30;;
10446;SDS011;70909;45.768;4.884;2023-08-07T02:59:20;0.30;;;0.30;;
10446;SDS011;70909;45.768;4.884;2023-08-07T03:01:46;0.30;;;0.30;;
10446;SDS011;70909;45.768;4.884;2023-08-07T03:04:15;0.30;;;0.30;;
10446;SDS011;70909;45.768;4.884;2023-08-07T03:06:41;0.40;;;0.40;;
10446;SDS011;70909;45.768;4.884;2023-08-07T03:09:08;0.30;;;0.30;;
10446;SDS011;70909;45.768;4.884;2023-08-07T03:11:35;0.30;;;0.30;;
10446;SDS011;70909;45.768;4.884;2023-08-07T03:14:02;0.30;;;0.30;;
10446;SDS011;70909;45.768;4.884;2023-08-07T03:16:29;0.30;;;0.30;;
10446;SDS011;70909;45.768;4.884;2023-08-07T03:18:56;0.30;;;0.30;;
10446;SDS011;70909;45.768;4.884;2023-08-07T03:21:24;0.30;;;0.30;;
10446;SDS011;70909;45.768;4.884;2023-08-07T03:23:51;0.30;;;0.30;;
10446;SDS011;70909;45.768;4.884;2023-08-07T03:26:18;0.30;;;0.30;;
10446;SDS011;70909;45.768;4.884;2023-08-07T03:28:45;0.30;;;0.30;;
10446;SDS011;70909;45.768;4.884;2023-08-07T03:31:13;0.33;;;0.33;;
10446;SDS011;70909;45.768;4.884;2023-08-07T03:33:40;0.30;;;0.30;;
10446;SDS011;70909;45.768;4.884;2023-08-07T03:36:07;0.30;;;0.30;;
10446;SDS011;70909;45.768;4.884;2023-08-07T03:38:36;0.30;;;0.30;;
10446;SDS011;70909;45.768;4.884;2023-08-07T03:41:03;0.30;;;0.30;;
10446;SDS011;70909;45.768;4.884;2023-08-07T03:43:30;0.30;;;0.30;;
10446;SDS011;70909;45.768;4.884;2023-08-07T03:45:57;0.30;;;0.30;;
10446;SDS011;70909;45.768;4.884;2023-08-07T03:48:24;0.30;;;0.30;;
10446;SDS011;70909;45.768;4.884;2023-08-07T03:50:50;0.30;;;0.30;;
10446;SDS011;70909;45.768;4.884;2023-08-07T03:53:17;0.40;;;0.40;;
10446;SDS011;70909;45.768;4.884;2023-08-07T03:55:50;0.30;;;0.30;;
10446;SDS011;70909;45.768;4.884;2023-08-07T03:58:17;0.30;;;0.30;;
10446;SDS011;70909;45.768;4.884;2023-08-07T04:00:43;0.30;;;0.30;;
10446;SDS011;70909;45.768;4.884;2023-08-07T04:03:10;0.30;;;0.30;;
10446;SDS011;70909;45.768;4.884;2023-08-07T04:05:37;0.30;;;0.30;;
10446;SDS011;70909;45.768;4.884;2023-08-07T04:08:04;0.30;;;0.30;;
10446;SDS011;70909;45.768;4.884;2023-08-07T04:10:31;0.30;;;0.30;;
10446;SDS011;70909;45.768;4.884;2023-08-07T04:12:59;0.30;;;0.30;;
10446;SDS011;70909;45.768;4.884;2023-08-07T04:15:26;0.30;;;0.30;;
10446;SDS011;70909;45.768;4.884;2023-08-07T04:17:53;0.30;;;0.30;;
10446;SDS011;70909;45.768;4.884;2023-08-07T04:20:19;0.30;;;0.30;;
10446;SDS011;70909;45.768;4.884;2023-08-07T04:22:46;0.40;;;0.40;;
10446;SDS011;70909;45.768;4.884;2023-08-07T04:25:13;0.40;;;0.40;;
10446;SDS011;70909;45.768;4.884;2023-08-07T04:27:40;0.30;;;0.30;;
10446;SDS011;70909;45.768;4.884;2023-08-07T04:30:09;0.30;;;0.30;;
10446;SDS011;70909;45.768;4.884;2023-08-07T04:32:36;0.37;;;0.37;;
10446;SDS011;70909;45.768;4.884;2023-08-07T04:35:04;0.40;;;0.40;;
10446;SDS011;70909;45.768;4.884;2023-08-07T04:37:31;0.30;;;0.30;;
10446;SDS011;70909;45.768;4.884;2023-08-07T04:39:58;0.40;;;0.40;;
10446;SDS011;70909;45.768;4.884;2023-08-07T04:42:25;0.30;;;0.30;;
10446;SDS011;70909;45.768;4.884;2023-08-07T04:44:52;0.30;;;0.30;;
10446;SDS011;70909;45.768;4.884;2023-08-07T04:47:20;0.30;;;0.30;;
10446;SDS011;70909;45.768;4.884;2023-08-07T04:49:47;0.33;;;0.33;;
10446;SDS011;70909;45.768;4.884;2023-08-07T04:52:15;0.30;;;0.30;;
10446;SDS011;70909;45.768;4.884;2023-08-07T04:54:42;0.30;;;0.30;;
10446;SDS011;70909;45.768;4.884;2023-08-07T04:57:08;0.37;;;0.37;;
10446;SDS011;70909;45.768;4.884;2023-08-07T04:59:35;0.30;;;0.30;;
10446;SDS011;70909;45.768;4.884;2023-08-07T05:02:02;0.30;;;0.30;;
10446;SDS011;70909;45.768;4.884;2023-08-07T05:04:30;0.40;;;0.40;;
10446;SDS011;70909;45.768;4.884;2023-08-07T05:06:57;0.40;;;0.40;;
10446;SDS011;70909;45.768;4.884;2023-08-07T05:09:24;0.30;;;0.30;;
10446;SDS011;70909;45.768;4.884;2023-08-07T05:11:51;0.40;;;0.40;;
10446;SDS011;70909;45.768;4.884;2023-08-07T05:14:18;0.40;;;0.40;;
10446;SDS011;70909;45.768;4.884;2023-08-07T05:16:45;0.30;;;0.30;;
10446;SDS011;70909;45.768;4.884;2023-08-07T05:19:14;0.30;;;0.30;;
10446;SDS011;70909;45.768;4.884;2023-08-07T05:21:42;0.30;;;0.30;;
10446;SDS011;70909;45.768;4.884;2023-08-07T05:24:09;0.40;;;0.40;;
10446;SDS011;70909;45.768;4.884;2023-08-07T05:26:37;0.30;;;0.30;;
10446;SDS011;70909;45.768;4.884;2023-08-07T05:29:04;0.30;;;0.30;;
10446;SDS011;70909;45.768;4.884;2023-08-07T05:31:32;0.30;;;0.30;;
10446;SDS011;70909;45.768;4.884;2023-08-07T05:33:59;0.33;;;0.33;;
10446;SDS011;70909;45.768;4.884;2023-08-07T05:36:25;0.30;;;0.30;;
10446;SDS011;70909;45.768;4.884;2023-08-07T05:38:54;0.40;;;0.40;;
10446;SDS011;70909;45.768;4.884;2023-08-07T05:41:21;0.30;;;0.30;;
10446;SDS011;70909;45.768;4.884;2023-08-07T05:43:48;0.30;;;0.30;;
10446;SDS011;70909;45.768;4.884;2023-08-07T05:46:15;0.40;;;0.40;;
10446;SDS011;70909;45.768;4.884;2023-08-07T05:48:42;0.30;;;0.30;;
10446;SDS011;70909;45.768;4.884;2023-08-07T05:51:09;0.30;;;0.30;;
10446;SDS011;70909;45.768;4.884;2023-08-07T05:53:36;0.30;;;0.30;;
10446;SDS011;70909;45.768;4.884;2023-08-07T05:56:04;0.30;;;0.30;;
10446;SDS011;70909;45.768;4.884;2023-08-07T05:58:31;0.37;;;0.37;;
10446;SDS011;70909;45.768;4.884;2023-08-07T06:00:58;0.30;;;0.30;;
10446;SDS011;70909;45.768;4.884;2023-08-07T06:03:24;0.30;;;0.30;;
10446;SDS011;70909;45.768;4.884;2023-08-07T06:05:51;0.40;;;0.40;;
10446;SDS011;70909;45.768;4.884;2023-08-07T06:08:18;0.37;;;0.37;;
10446;SDS011;70909;45.768;4.884;2023-08-07T06:10:45;0.40;;;0.40;;
10446;SDS011;70909;45.768;4.884;2023-08-07T06:13:13;0.30;;;0.30;;
10446;SDS011;70909;45.768;4.884;2023-08-07T06:15:40;0.30;;;0.30;;
10446;SDS011;70909;45.768;4.884;2023-08-07T06:18:07;0.40;;;0.40;;
10446;SDS011;70909;45.768;4.884;2023-08-07T06:20:34;0.30;;;0.30;;
10446;SDS011;70909;45.768;4.884;2023-08-07T06:23:01;0.40;;;0.40;;
10446;SDS011;70909;45.768;4.884;2023-08-07T06:25:27;0.30;;;0.30;;
10446;SDS011;70909;45.768;4.884;2023-08-07T06:27:54;0.30;;;0.30;;
10446;SDS011;70909;45.768;4.884;2023-08-07T06:30:22;0.30;;;0.30;;
10446;SDS011;70909;45.768;4.884;2023-08-07T06:32:49;0.30;;;0.30;;
10446;SDS011;70909;45.768;4.884;2023-08-07T06:35:16;0.30;;;0.30;;
10446;SDS011;70909;45.768;4.884;2023-08-07T06:37:43;0.30;;;0.30;;
10446;SDS011;70909;45.768;4.884;2023-08-07T06:40:10;0.30;;;0.30;;
10446;SDS011;70909;45.768;4.884;2023-08-07T06:42:37;0.30;;;0.30;;
10446;SDS011;70909;45.768;4.884;2023-08-07T06:45:05;0.30;;;0.30;;
10446;SDS011;70909;45.768;4.884;2023-08-07T06:47:34;0.30;;;0.30;;
10446;SDS011;70909;45.768;4.884;2023-08-07T06:50:00;0.30;;;0.30;;
10446;SDS011;70909;45.768;4.884;2023-08-07T06:52:27;0.30;;;0.30;;
10446;SDS011;70909;45.768;4.884;2023-08-07T06:54:54;0.40;;;0.40;;
10446;SDS011;70909;45.768;4.884;2023-08-07T06:57:21;0.30;;;0.30;;
10446;SDS011;70909;45.768;4.884;2023-08-07T06:59:48;0.40;;;0.40;;
10446;SDS011;70909;45.768;4.884;2023-08-07T07:02:15;0.30;;;0.30;;
10446;SDS011;70909;45.768;4.884;2023-08-07T07:04:43;0.40;;;0.40;;
10446;SDS011;70909;45.768;4.884;2023-08-07T07:07:10;0.40;;;0.40;;
10446;SDS011;70909;45.768;4.884;2023-08-07T07:09:36;0.40;;;0.40;;
10446;SDS011;70909;45.768;4.884;2023-08-07T07:12:04;0.30;;;0.30;;
10446;SDS011;70909;45.768;4.884;2023-08-07T07:14:31;0.30;;;0.30;;
10446;SDS011;70909;45.768;4.884;2023-08-07T07:16:58;0.30;;;0.30;;
10446;SDS011;70909;45.768;4.884;2023-08-07T07:19:25;0.30;;;0.30;;
10446;SDS011;70909;45.768;4.884;2023-08-07T07:21:54;0.40;;;0.40;;
10446;SDS011;70909;45.768;4.884;2023-08-07T07:24:20;0.30;;;0.30;;
10446;SDS011;70909;45.768;4.884;2023-08-07T07:26:47;0.30;;;0.30;;
10446;SDS011;70909;45.768;4.884;2023-08-07T07:29:15;0.30;;;0.30;;
10446;SDS011;70909;45.768;4.884;2023-08-07T07:31:42;0.30;;;0.30;;
10446;SDS011;70909;45.768;4.884;2023-08-07T07:34:09;0.30;;;0.30;;
10446;SDS011;70909;45.768;4.884;2023-08-07T07:36:36;0.30;;;0.30;;
10446;SDS011;70909;45.768;4.884;2023-08-07T07:39:04;0.40;;;0.40;;
10446;SDS011;70909;45.768;4.884;2023-08-07T07:41:31;0.30;;;0.30;;
10446;SDS011;70909;45.768;4.884;2023-08-07T07:43:58;0.30;;;0.30;;
10446;SDS011;70909;45.768;4.884;2023-08-07T07:46:27;0.30;;;0.30;;
10446;SDS011;70909;45.768;4.884;2023-08-07T07:48:54;0.30;;;0.30;;
10446;SDS011;70909;45.768;4.884;2023-08-07T07:51:21;0.30;;;0.30;;
10446;SDS011;70909;45.768;4.884;2023-08-07T07:53:48;0.30;;;0.30;;
10446;SDS011;70909;45.768;4.884;2023-08-07T07:56:16;0.30;;;0.30;;
10446;SDS011;70909;45.768;4.884;2023-08-07T07:58:43;0.30;;;0.30;;
10446;SDS011;70909;45.768;4.884;2023-08-07T08:01:10;0.27;;;0.27;;
10446;SDS011;70909;45.768;4.884;2023-08-07T08:03:37;0.20;;;0.20;;
10446;SDS011;70909;45.768;4.884;2023-08-07T08:06:05;0.20;;;0.20;;
10446;SDS011;70909;45.768;4.884;2023-08-07T08:08:31;0.20;;;0.20;;
10446;SDS011;70909;45.768;4.884;2023-08-07T08:10:58;0.20;;;0.20;;
10446;SDS011;70909;45.768;4.884;2023-08-07T08:13:27;0.20;;;0.20;;
10446;SDS011;70909;45.768;4.884;2023-08-07T08:15:53;0.20;;;0.20;;
10446;SDS011;70909;45.768;4.884;2023-08-07T08:18:20;0.20;;;0.20;;
10446;SDS011;70909;45.768;4.884;2023-08-07T08:20:47;0.20;;;0.20;;
10446;SDS011;70909;45.768;4.884;2023-08-07T08:23:14;0.20;;;0.20;;
10446;SDS011;70909;45.768;4.884;2023-08-07T08:25:41;0.20;;;0.20;;
10446;SDS011;70909;45.768;4.884;2023-08-07T08:28:08;0.20;;;0.20;;
10446;SDS011;70909;45.768;4.884;2023-08-07T08:30:36;0.20;;;0.20;;
10446;SDS011;70909;45.768;4.884;2023-08-07T08:33:03;0.20;;;0.20;;
10446;SDS011;70909;45.768;4.884;2023-08-07T08:35:30;0.20;;;0.20;;
10446;SDS011;70909;45.768;4.884;2023-08-07T08:37:57;0.20;;;0.20;;
10446;SDS011;70909;45.768;4.884;2023-08-07T08:40:24;0.20;;;0.20;;
10446;SDS011;70909;45.768;4.884;2023-08-07T08:42:51;0.20;;;0.20;;
10446;SDS011;70909;45.768;4.884;2023-08-07T08:45:21;0.20;;;0.20;;
10446;SDS011;70909;45.768;4.884;2023-08-07T08:47:49;0.20;;;0.20;;
10446;SDS011;70909;45.768;4.884;2023-08-07T08:50:18;0.20;;;0.20;;
10446;SDS011;70909;45.768;4.884;2023-08-07T08:52:45;0.10;;;0.10;;
10446;SDS011;70909;45.768;4.884;2023-08-07T08:55:12;0.10;;;0.10;;
10446;SDS011;70909;45.768;4.884;2023-08-07T08:57:40;0.10;;;0.10;;
10446;SDS011;70909;45.768;4.884;2023-08-07T09:00:08;0.10;;;0.10;;
10446;SDS011;70909;45.768;4.884;2023-08-07T09:02:43;0.10;;;0.10;;
10446;SDS011;70909;45.768;4.884;2023-08-07T09:05:12;0.10;;;0.10;;
10446;SDS011;70909;45.768;4.884;2023-08-07T09:07:40;0.10;;;0.10;;
10446;SDS011;70909;45.768;4.884;2023-08-07T09:10:07;0.10;;;0.10;;
10446;SDS011;70909;45.768;4.884;2023-08-07T09:12:36;0.10;;;0.10;;
10446;SDS011;70909;45.768;4.884;2023-08-07T09:15:07;0.10;;;0.10;;
10446;SDS011;70909;45.768;4.884;2023-08-07T09:17:39;0.10;;;0.10;;
10446;SDS011;70909;45.768;4.884;2023-08-07T09:20:07;0.10;;;0.10;;
10446;SDS011;70909;45.768;4.884;2023-08-07T09:22:38;0.10;;;0.10;;
10446;SDS011;70909;45.768;4.884;2023-08-07T09:25:07;0.20;;;0.20;;
10446;SDS011;70909;45.768;4.884;2023-08-07T09:27:35;0.10;;;0.10;;
10446;SDS011;70909;45.768;4.884;2023-08-07T09:30:04;0.10;;;0.10;;
10446;SDS011;70909;45.768;4.884;2023-08-07T09:32:33;0.20;;;0.20;;
10446;SDS011;70909;45.768;4.884;2023-08-07T09:35:02;0.10;;;0.10;;
10446;SDS011;70909;45.768;4.884;2023-08-07T09:37:30;0.20;;;0.20;;
10446;SDS011;70909;45.768;4.884;2023-08-07T09:40:00;0.10;;;0.10;;
10446;SDS011;70909;45.768;4.884;2023-08-07T09:42:30;0.20;;;0.20;;
10446;SDS011;70909;45.768;4.884;2023-08-07T09:44:59;0.20;;;0.20;;
10446;SDS011;70909;45.768;4.884;2023-08-07T09:47:26;0.10;;;0.10;;
10446;SDS011;70909;45.768;4.884;2023-08-07T09:49:54;0.13;;;0.13;;
10446;SDS011;70909;45.768;4.884;2023-08-07T09:52:22;0.10;;;0.10;;
10446;SDS011;70909;45.768;4.884;2023-08-07T09:54:55;0.10;;;0.10;;
10446;SDS011;70909;45.768;4.884;2023-08-07T09:57:24;0.10;;;0.10;;
10446;SDS011;70909;45.768;4.884;2023-08-07T09:59:51;0.10;;;0.10;;
10446;SDS011;70909;45.768;4.884;2023-08-07T10:02:18;0.17;;;0.17;;
10446;SDS011;70909;45.768;4.884;2023-08-07T10:04:47;0.20;;;0.20;;
10446;SDS011;70909;45.768;4.884;2023-08-07T10:07:14;0.20;;;0.20;;
10446;SDS011;70909;45.768;4.884;2023-08-07T10:09:41;0.10;;;0.10;;
10446;SDS011;70909;45.768;4.884;2023-08-07T10:12:09;0.10;;;0.10;;
10446;SDS011;70909;45.768;4.884;2023-08-07T10:14:38;0.20;;;0.20;;
10446;SDS011;70909;45.768;4.884;2023-08-07T10:17:07;0.20;;;0.20;;
10446;SDS011;70909;45.768;4.884;2023-08-07T10:19:34;0.10;;;0.10;;
10446;SDS011;70909;45.768;4.884;2023-08-07T10:22:04;0.20;;;0.20;;
10446;SDS011;70909;45.768;4.884;2023-08-07T10:24:32;0.20;;;0.20;;
10446;SDS011;70909;45.768;4.884;2023-08-07T10:27:02;0.20;;;0.20;;
10446;SDS011;70909;45.768;4.884;2023-08-07T10:29:30;0.10;;;0.10;;
10446;SDS011;70909;45.768;4.884;2023-08-07T10:32:00;0.20;;;0.20;;
10446;SDS011;70909;45.768;4.884;2023-08-07T10:34:28;0.20;;;0.20;;
10446;SDS011;70909;45.768;4.884;2023-08-07T10:36:56;0.20;;;0.20;;
10446;SDS011;70909;45.768;4.884;2023-08-07T10:39:24;0.20;;;0.20;;
10446;SDS011;70909;45.768;4.884;2023-08-07T10:41:52;0.20;;;0.20;;
10446;SDS011;70909;45.768;4.884;2023-08-07T10:44:21;0.20;;;0.20;;
10446;SDS011;70909;45.768;4.884;2023-08-07T10:46:49;0.17;;;0.17;;
10446;SDS011;70909;45.768;4.884;2023-08-07T10:49:33;0.20;;;0.20;;
10446;SDS011;70909;45.768;4.884;2023-08-07T10:52:02;0.20;;;0.20;;
10446;SDS011;70909;45.768;4.884;2023-08-07T10:54:30;0.20;;;0.20;;
10446;SDS011;70909;45.768;4.884;2023-08-07T10:57:09;0.20;;;0.20;;
10446;SDS011;70909;45.768;4.884;2023-08-07T10:59:38;0.20;;;0.20;;
10446;SDS011;70909;45.768;4.884;2023-08-07T11:02:07;0.20;;;0.20;;
10446;SDS011;70909;45.768;4.884;2023-08-07T11:04:38;0.20;;;0.20;;
10446;SDS011;70909;45.768;4.884;2023-08-07T11:07:05;0.20;;;0.20;;
10446;SDS011;70909;45.768;4.884;2023-08-07T11:09:33;0.20;;;0.20;;
10446;SDS011;70909;45.768;4.884;2023-08-07T11:12:01;0.10;;;0.10;;
10446;SDS011;70909;45.768;4.884;2023-08-07T11:14:28;0.20;;;0.20;;
10446;SDS011;70909;45.768;4.884;2023-08-07T11:16:54;0.17;;;0.17;;
10446;SDS011;70909;45.768;4.884;2023-08-07T11:19:22;0.20;;;0.20;;
10446;SDS011;70909;45.768;4.884;2023-08-07T11:21:50;0.20;;;0.20;;
10446;SDS011;70909;45.768;4.884;2023-08-07T11:24:19;0.20;;;0.20;;
10446;SDS011;70909;45.768;4.884;2023-08-07T11:26:47;0.20;;;0.20;;
10446;SDS011;70909;45.768;4.884;2023-08-07T11:29:15;0.10;;;0.10;;
10446;SDS011;70909;45.768;4.884;2023-08-07T11:31:43;0.20;;;0.20;;
10446;SDS011;70909;45.768;4.884;2023-08-07T11:34:11;0.20;;;0.20;;
10446;SDS011;70909;45.768;4.884;2023-08-07T11:36:40;0.20;;;0.20;;
10446;SDS011;70909;45.768;4.884;2023-08-07T11:39:09;0.20;;;0.20;;
10446;SDS011;70909;45.768;4.884;2023-08-07T11:41:36;0.20;;;0.20;;
10446;SDS011;70909;45.768;4.884;2023-08-07T11:44:03;0.20;;;0.20;;
10446;SDS011;70909;45.768;4.884;2023-08-07T11:46:30;0.10;;;0.10;;
10446;SDS011;70909;45.768;4.884;2023-08-07T11:48:57;0.10;;;0.10;;
10446;SDS011;70909;45.768;4.884;2023-08-07T11:51:24;0.20;;;0.20;;
10446;SDS011;70909;45.768;4.884;2023-08-07T11:53:51;0.20;;;0.20;;
10446;SDS011;70909;45.768;4.884;2023-08-07T11:56:25;0.20;;;0.20;;
10446;SDS011;70909;45.768;4.884;2023-08-07T11:58:52;0.20;;;0.20;;
10446;SDS011;70909;45.768;4.884;2023-08-07T12:01:19;0.10;;;0.10;;
10446;SDS011;70909;45.768;4.884;2023-08-07T12:03:50;0.20;;;0.20;;
10446;SDS011;70909;45.768;4.884;2023-08-07T12:06:19;0.20;;;0.20;;
10446;SDS011;70909;45.768;4.884;2023-08-07T12:08:48;0.13;;;0.13;;
10446;SDS011;70909;45.768;4.884;2023-08-07T12:11:15;0.20;;;0.20;;
10446;SDS011;70909;45.768;4.884;2023-08-07T12:13:44;0.10;;;0.10;;
10446;SDS011;70909;45.768;4.884;2023-08-07T12:16:11;0.10;;;0.10;;
10446;SDS011;70909;45.768;4.884;2023-08-07T12:18:43;0.10;;;0.10;;
10446;SDS011;70909;45.768;4.884;2023-08-07T12:21:12;0.20;;;0.20;;
10446;SDS011;70909;45.768;4.884;2023-08-07T12:23:40;0.20;;;0.20;;
10446;SDS011;70909;45.768;4.884;2023-08-07T12:26:08;0.10;;;0.10;;
10446;SDS011;70909;45.768;4.884;2023-08-07T12:28:35;0.10;;;0.10;;
10446;SDS011;70909;45.768;4.884;2023-08-07T12:31:03;0.10;;;0.10;;
10446;SDS011;70909;45.768;4.884;2023-08-07T12:33:32;0.20;;;0.20;;
10446;SDS011;70909;45.768;4.884;2023-08-07T12:35:59;0.10;;;0.10;;
10446;SDS011;70909;45.768;4.884;2023-08-07T12:38:26;0.10;;;0.10;;
10446;SDS011;70909;45.768;4.884;2023-08-07T12:40:54;0.10;;;0.10;;
10446;SDS011;70909;45.768;4.884;2023-08-07T12:43:21;0.10;;;0.10;;
10446;SDS011;70909;45.768;4.884;2023-08-07T12:45:48;0.20;;;0.20;;
10446;SDS011;70909;45.768;4.884;2023-08-07T12:48:16;0.10;;;0.10;;
10446;SDS011;70909;45.768;4.884;2023-08-07T12:50:43;0.17;;;0.17;;
10446;SDS011;70909;45.768;4.884;2023-08-07T12:53:10;0.10;;;0.10;;
10446;SDS011;70909;45.768;4.884;2023-08-07T12:55:37;0.10;;;0.10;;
10446;SDS011;70909;45.768;4.884;2023-08-07T12:58:03;0.10;;;0.10;;
10446;SDS011;70909;45.768;4.884;2023-08-07T13:00:30;0.10;;;0.10;;
10446;SDS011;70909;45.768;4.884;2023-08-07T13:02:57;0.10;;;0.10;;
10446;SDS011;70909;45.768;4.884;2023-08-07T13:05:27;0.10;;;0.10;;
10446;SDS011;70909;45.768;4.884;2023-08-07T13:07:54;0.20;;;0.20;;
10446;SDS011;70909;45.768;4.884;2023-08-07T13:10:23;0.20;;;0.20;;
10446;SDS011;70909;45.768;4.884;2023-08-07T13:12:53;0.10;;;0.10;;
10446;SDS011;70909;45.768;4.884;2023-08-07T13:15:20;0.20;;;0.20;;
10446;SDS011;70909;45.768;4.884;2023-08-07T13:17:47;0.20;;;0.20;;
10446;SDS011;70909;45.768;4.884;2023-08-07T13:20:13;0.10;;;0.10;;
10446;SDS011;70909;45.768;4.884;2023-08-07T13:22:42;0.20;;;0.20;;
10446;SDS011;70909;45.768;4.884;2023-08-07T13:25:10;0.10;;;0.10;;
10446;SDS011;70909;45.768;4.884;2023-08-07T13:27:38;0.20;;;0.20;;
10446;SDS011;70909;45.768;4.884;2023-08-07T13:30:06;0.20;;;0.20;;
10446;SDS011;70909;45.768;4.884;2023-08-07T13:32:34;0.10;;;0.10;;
10446;SDS011;70909;45.768;4.884;2023-08-07T13:35:01;0.20;;;0.20;;
10446;SDS011;70909;45.768;4.884;2023-08-07T13:37:28;0.10;;;0.10;;
10446;SDS011;70909;45.768;4.884;2023-08-07T13:39:57;0.13;;;0.13;;
10446;SDS011;70909;45.768;4.884;2023-08-07T13:42:24;0.10;;;0.10;;
10446;SDS011;70909;45.768;4.884;2023-08-07T13:44:52;0.10;;;0.10;;
10446;SDS011;70909;45.768;4.884;2023-08-07T13:47:19;0.20;;;0.20;;
10446;SDS011;70909;45.768;4.884;2023-08-07T13:49:46;0.13;;;0.13;;
10446;SDS011;70909;45.768;4.884;2023-08-07T13:52:13;0.20;;;0.20;;
10446;SDS011;70909;45.768;4.884;2023-08-07T13:54:40;0.20;;;0.20;;
10446;SDS011;70909;45.768;4.884;2023-08-07T13:57:08;0.20;;;0.20;;
10446;SDS011;70909;45.768;4.884;2023-08-07T13:59:35;0.10;;;0.10;;
10446;SDS011;70909;45.768;4.884;2023-08-07T14:02:02;0.10;;;0.10;;
10446;SDS011;70909;45.768;4.884;2023-08-07T14:04:29;0.20;;;0.20;;
10446;SDS011;70909;45.768;4.884;2023-08-07T14:06:57;0.10;;;0.10;;
10446;SDS011;70909;45.768;4.884;2023-08-07T14:09:24;0.10;;;0.10;;
10446;SDS011;70909;45.768;4.884;2023-08-07T14:11:51;0.10;;;0.10;;
10446;SDS011;70909;45.768;4.884;2023-08-07T14:14:19;0.10;;;0.10;;
10446;SDS011;70909;45.768;4.884;2023-08-07T14:16:46;0.10;;;0.10;;
10446;SDS011;70909;45.768;4.884;2023-08-07T14:19:13;0.10;;;0.10;;
10446;SDS011;70909;45.768;4.884;2023-08-07T14:21:40;0.10;;;0.10;;
10446;SDS011;70909;45.768;4.884;2023-08-07T14:24:07;0.10;;;0.10;;
10446;SDS011;70909;45.768;4.884;2023-08-07T14:26:33;0.10;;;0.10;;
10446;SDS011;70909;45.768;4.884;2023-08-07T14:29:00;0.20;;;0.20;;
10446;SDS011;70909;45.768;4.884;2023-08-07T14:31:28;0.10;;;0.10;;
10446;SDS011;70909;45.768;4.884;2023-08-07T14:33:55;0.10;;;0.10;;
10446;SDS011;70909;45.768;4.884;2023-08-07T14:36:22;0.10;;;0.10;;
10446;SDS011;70909;45.768;4.884;2023-08-07T14:38:49;0.10;;;0.10;;
10446;SDS011;70909;45.768;4.884;2023-08-07T14:41:16;0.10;;;0.10;;
10446;SDS011;70909;45.768;4.884;2023-08-07T14:43:44;0.20;;;0.20;;
10446;SDS011;70909;45.768;4.884;2023-08-07T14:46:12;0.20;;;0.20;;
10446;SDS011;70909;45.768;4.884;2023-08-07T14:48:40;0.10;;;0.10;;
10446;SDS011;70909;45.768;4.884;2023-08-07T14:51:07;0.10;;;0.10;;